sensor_id;sensor_type;location;lat;lon;timestamp;P1;durP1;ratioP1;P2;durP2;ratioP2
14890;SDS011;7537;48.014;11.590;2022-10-31T00:02:17;12.92;;;4.64;;
14890;SDS011;7537;48.014;11.590;2022-10-31T00:07:48;3.70;;;3.20;;
14890;SDS011;7537;48.014;11.590;2022-10-31T00:13:18;4.79;;;3.19;;
14890;SDS011;7537;48.014;11.590;2022-10-31T00:18:48;4.88;;;2.81;;
14890;SDS011;7537;48.014;11.590;2022-10-31T00:24:17;3.52;;;3.03;;
14890;SDS011;7537;48.014;11.590;2022-10-31T00:29:44;7.78;;;3.70;;
14890;SDS011;7537;48.014;11.590;2022-10-31T00:35:12;9.21;;;3.54;;
14890;SDS011;7537;48.014;11.590;2022-10-31T00:40:41;8.56;;;4.34;;
14890;SDS011;7537;48.014;11.590;2022-10-31T00:46:10;8.53;;;3.38;;
14890;SDS011;7537;48.014;11.590;2022-10-31T00:51:39;5.66;;;3.68;;
14890;SDS011;7537;48.014;11.590;2022-10-31T00:57:08;7.39;;;3.73;;
14890;SDS011;7537;48.014;11.590;2022-10-31T01:02:36;11.03;;;3.56;;
14890;SDS011;7537;48.014;11.590;2022-10-31T01:08:06;9.66;;;3.23;;
14890;SDS011;7537;48.014;11.590;2022-10-31T01:13:34;6.71;;;3.74;;
14890;SDS011;7537;48.014;11.590;2022-10-31T01:19:01;9.71;;;3.28;;
14890;SDS011;7537;48.014;11.590;2022-10-31T01:24:29;11.48;;;3.82;;
14890;SDS011;7537;48.014;11.590;2022-10-31T01:29:58;7.09;;;3.76;;
14890;SDS011;7537;48.014;11.590;2022-10-31T01:35:26;10.36;;;3.31;;
14890;SDS011;7537;48.014;11.590;2022-10-31T01:40:53;7.31;;;4.19;;
14890;SDS011;7537;48.014;11.590;2022-10-31T01:46:22;4.39;;;3.69;;
14890;SDS011;7537;48.014;11.590;2022-10-31T01:51:50;4.34;;;2.64;;
14890;SDS011;7537;48.014;11.590;2022-10-31T01:57:19;7.45;;;3.84;;
14890;SDS011;7537;48.014;11.590;2022-10-31T02:02:49;5.42;;;3.24;;
14890;SDS011;7537;48.014;11.590;2022-10-31T02:08:21;5.82;;;3.01;;
14890;SDS011;7537;48.014;11.590;2022-10-31T02:13:50;4.58;;;3.34;;
14890;SDS011;7537;48.014;11.590;2022-10-31T02:19:20;9.00;;;4.01;;
14890;SDS011;7537;48.014;11.590;2022-10-31T02:24:52;6.82;;;4.92;;
14890;SDS011;7537;48.014;11.590;2022-10-31T02:30:25;7.15;;;3.92;;
14890;SDS011;7537;48.014;11.590;2022-10-31T02:36:02;3.73;;;2.92;;
14890;SDS011;7537;48.014;11.590;2022-10-31T02:41:34;9.92;;;4.08;;
14890;SDS011;7537;48.014;11.590;2022-10-31T02:47:03;5.67;;;3.32;;
14890;SDS011;7537;48.014;11.590;2022-10-31T02:52:32;7.16;;;3.66;;
14890;SDS011;7537;48.014;11.590;2022-10-31T02:58:01;4.72;;;3.66;;
14890;SDS011;7537;48.014;11.590;2022-10-31T03:03:30;6.33;;;3.71;;
14890;SDS011;7537;48.014;11.590;2022-10-31T03:09:08;5.58;;;3.32;;
14890;SDS011;7537;48.014;11.590;2022-10-31T03:14:38;5.48;;;3.01;;
14890;SDS011;7537;48.014;11.590;2022-10-31T03:20:07;3.16;;;2.81;;
14890;SDS011;7537;48.014;11.590;2022-10-31T03:25:36;8.26;;;2.89;;
14890;SDS011;7537;48.014;11.590;2022-10-31T03:31:04;8.90;;;3.65;;
14890;SDS011;7537;48.014;11.590;2022-10-31T03:36:32;6.68;;;3.00;;
14890;SDS011;7537;48.014;11.590;2022-10-31T03:42:04;4.85;;;3.09;;
14890;SDS011;7537;48.014;11.590;2022-10-31T03:47:32;5.50;;;3.16;;
14890;SDS011;7537;48.014;11.590;2022-10-31T03:53:01;8.92;;;3.48;;
14890;SDS011;7537;48.014;11.590;2022-10-31T03:58:32;7.17;;;2.72;;
14890;SDS011;7537;48.014;11.590;2022-10-31T04:04:01;8.93;;;3.81;;
14890;SDS011;7537;48.014;11.590;2022-10-31T04:09:33;7.73;;;4.18;;
14890;SDS011;7537;48.014;11.590;2022-10-31T04:15:05;5.27;;;3.29;;
14890;SDS011;7537;48.014;11.590;2022-10-31T04:20:33;3.58;;;3.29;;
14890;SDS011;7537;48.014;11.590;2022-10-31T04:26:01;5.49;;;3.13;;
14890;SDS011;7537;48.014;11.590;2022-10-31T04:31:29;7.89;;;2.83;;
14890;SDS011;7537;48.014;11.590;2022-10-31T04:37:12;3.29;;;2.58;;
14890;SDS011;7537;48.014;11.590;2022-10-31T04:42:39;6.29;;;3.18;;
14890;SDS011;7537;48.014;11.590;2022-10-31T04:48:08;7.88;;;3.95;;
14890;SDS011;7537;48.014;11.590;2022-10-31T04:53:35;3.94;;;3.04;;
14890;SDS011;7537;48.014;11.590;2022-10-31T04:59:02;9.19;;;3.20;;
14890;SDS011;7537;48.014;11.590;2022-10-31T05:04:30;5.35;;;2.71;;
14890;SDS011;7537;48.014;11.590;2022-10-31T05:10:01;6.99;;;2.93;;
14890;SDS011;7537;48.014;11.590;2022-10-31T05:15:29;9.44;;;3.13;;
14890;SDS011;7537;48.014;11.590;2022-10-31T05:20:58;5.29;;;2.84;;
14890;SDS011;7537;48.014;11.590;2022-10-31T05:26:25;5.04;;;3.38;;
14890;SDS011;7537;48.014;11.590;2022-10-31T05:31:53;3.69;;;3.76;;
14890;SDS011;7537;48.014;11.590;2022-10-31T05:37:20;4.26;;;3.59;;
14890;SDS011;7537;48.014;11.590;2022-10-31T05:42:50;5.51;;;3.66;;
14890;SDS011;7537;48.014;11.590;2022-10-31T05:48:17;6.84;;;3.71;;
14890;SDS011;7537;48.014;11.590;2022-10-31T05:53:46;4.94;;;3.76;;
14890;SDS011;7537;48.014;11.590;2022-10-31T05:59:14;8.91;;;4.34;;
14890;SDS011;7537;48.014;11.590;2022-10-31T06:04:41;7.29;;;3.61;;
14890;SDS011;7537;48.014;11.590;2022-10-31T06:10:12;5.81;;;3.81;;
14890;SDS011;7537;48.014;11.590;2022-10-31T06:15:39;6.61;;;3.58;;
14890;SDS011;7537;48.014;11.590;2022-10-31T06:21:08;3.39;;;2.60;;
14890;SDS011;7537;48.014;11.590;2022-10-31T06:26:36;2.91;;;2.21;;
14890;SDS011;7537;48.014;11.590;2022-10-31T06:32:04;8.57;;;3.03;;
14890;SDS011;7537;48.014;11.590;2022-10-31T06:37:31;3.89;;;3.07;;
14890;SDS011;7537;48.014;11.590;2022-10-31T06:42:59;4.71;;;2.88;;
14890;SDS011;7537;48.014;11.590;2022-10-31T06:48:27;3.47;;;2.71;;
14890;SDS011;7537;48.014;11.590;2022-10-31T06:53:54;3.19;;;2.70;;
14890;SDS011;7537;48.014;11.590;2022-10-31T06:59:23;4.18;;;2.53;;
14890;SDS011;7537;48.014;11.590;2022-10-31T07:04:51;4.77;;;2.18;;
14890;SDS011;7537;48.014;11.590;2022-10-31T07:10:22;4.91;;;2.69;;
14890;SDS011;7537;48.014;11.590;2022-10-31T07:15:49;3.69;;;2.49;;
14890;SDS011;7537;48.014;11.590;2022-10-31T07:21:17;2.94;;;2.09;;
14890;SDS011;7537;48.014;11.590;2022-10-31T07:26:45;4.06;;;2.29;;
14890;SDS011;7537;48.014;11.590;2022-10-31T07:32:13;3.41;;;2.68;;
14890;SDS011;7537;48.014;11.590;2022-10-31T07:37:41;5.37;;;3.22;;
14890;SDS011;7537;48.014;11.590;2022-10-31T07:43:08;3.67;;;3.33;;
14890;SDS011;7537;48.014;11.590;2022-10-31T07:48:37;6.61;;;2.51;;
14890;SDS011;7537;48.014;11.590;2022-10-31T07:54:04;7.28;;;2.70;;
14890;SDS011;7537;48.014;11.590;2022-10-31T07:59:31;4.69;;;2.44;;
14890;SDS011;7537;48.014;11.590;2022-10-31T08:05:00;3.64;;;2.37;;
14890;SDS011;7537;48.014;11.590;2022-10-31T08:10:31;10.99;;;2.78;;
14890;SDS011;7537;48.014;11.590;2022-10-31T08:16:01;4.84;;;2.69;;
14890;SDS011;7537;48.014;11.590;2022-10-31T08:21:28;2.51;;;2.22;;
14890;SDS011;7537;48.014;11.590;2022-10-31T08:26:55;6.37;;;2.65;;
14890;SDS011;7537;48.014;11.590;2022-10-31T08:32:22;4.19;;;2.39;;
14890;SDS011;7537;48.014;11.590;2022-10-31T08:37:52;9.17;;;2.59;;
14890;SDS011;7537;48.014;11.590;2022-10-31T08:43:20;7.51;;;3.07;;
14890;SDS011;7537;48.014;11.590;2022-10-31T08:48:48;6.62;;;2.82;;
14890;SDS011;7537;48.014;11.590;2022-10-31T08:54:15;5.29;;;2.34;;
14890;SDS011;7537;48.014;11.590;2022-10-31T08:59:43;13.12;;;3.84;;
14890;SDS011;7537;48.014;11.590;2022-10-31T09:05:10;7.57;;;3.47;;
14890;SDS011;7537;48.014;11.590;2022-10-31T09:10:42;4.37;;;2.50;;
14890;SDS011;7537;48.014;11.590;2022-10-31T09:16:10;3.79;;;2.48;;
14890;SDS011;7537;48.014;11.590;2022-10-31T09:21:37;6.08;;;3.39;;
14890;SDS011;7537;48.014;11.590;2022-10-31T09:27:04;5.01;;;2.96;;
14890;SDS011;7537;48.014;11.590;2022-10-31T09:32:32;8.20;;;3.32;;
14890;SDS011;7537;48.014;11.590;2022-10-31T09:38:00;4.67;;;2.96;;
14890;SDS011;7537;48.014;11.590;2022-10-31T09:43:30;5.89;;;3.11;;
14890;SDS011;7537;48.014;11.590;2022-10-31T09:49:14;8.71;;;3.66;;
14890;SDS011;7537;48.014;11.590;2022-10-31T09:54:44;11.42;;;3.37;;
14890;SDS011;7537;48.014;11.590;2022-10-31T10:00:16;9.72;;;3.30;;
14890;SDS011;7537;48.014;11.590;2022-10-31T10:05:45;3.95;;;3.06;;
14890;SDS011;7537;48.014;11.590;2022-10-31T10:11:22;6.27;;;2.01;;
14890;SDS011;7537;48.014;11.590;2022-10-31T10:17:08;4.64;;;2.58;;
14890;SDS011;7537;48.014;11.590;2022-10-31T10:22:40;8.28;;;2.94;;
14890;SDS011;7537;48.014;11.590;2022-10-31T10:28:13;7.62;;;2.67;;
14890;SDS011;7537;48.014;11.590;2022-10-31T10:33:44;6.40;;;2.42;;
14890;SDS011;7537;48.014;11.590;2022-10-31T10:39:14;12.94;;;3.39;;
14890;SDS011;7537;48.014;11.590;2022-10-31T10:44:48;5.97;;;2.77;;
14890;SDS011;7537;48.014;11.590;2022-10-31T10:50:17;5.37;;;2.17;;
14890;SDS011;7537;48.014;11.590;2022-10-31T10:55:47;6.69;;;2.83;;
14890;SDS011;7537;48.014;11.590;2022-10-31T11:01:17;6.43;;;2.78;;
14890;SDS011;7537;48.014;11.590;2022-10-31T11:06:55;7.35;;;2.99;;
14890;SDS011;7537;48.014;11.590;2022-10-31T11:12:28;7.94;;;2.93;;
14890;SDS011;7537;48.014;11.590;2022-10-31T11:17:56;4.72;;;2.62;;
14890;SDS011;7537;48.014;11.590;2022-10-31T11:23:26;4.12;;;2.50;;
14890;SDS011;7537;48.014;11.590;2022-10-31T11:28:57;8.16;;;3.29;;
14890;SDS011;7537;48.014;11.590;2022-10-31T11:34:27;6.45;;;3.08;;
14890;SDS011;7537;48.014;11.590;2022-10-31T11:39:57;5.25;;;2.97;;
14890;SDS011;7537;48.014;11.590;2022-10-31T11:45:28;4.92;;;2.52;;
14890;SDS011;7537;48.014;11.590;2022-10-31T11:50:57;9.80;;;2.83;;
14890;SDS011;7537;48.014;11.590;2022-10-31T11:56:26;3.66;;;2.03;;
14890;SDS011;7537;48.014;11.590;2022-10-31T12:01:54;9.41;;;2.72;;
14890;SDS011;7537;48.014;11.590;2022-10-31T12:07:22;5.10;;;2.90;;
14890;SDS011;7537;48.014;11.590;2022-10-31T12:12:56;7.37;;;3.50;;
14890;SDS011;7537;48.014;11.590;2022-10-31T12:18:37;3.58;;;2.46;;
14890;SDS011;7537;48.014;11.590;2022-10-31T12:24:14;5.35;;;2.75;;
14890;SDS011;7537;48.014;11.590;2022-10-31T12:29:50;5.70;;;2.46;;
14890;SDS011;7537;48.014;11.590;2022-10-31T12:35:25;6.25;;;3.04;;
14890;SDS011;7537;48.014;11.590;2022-10-31T12:41:00;5.56;;;2.85;;
14890;SDS011;7537;48.014;11.590;2022-10-31T12:46:35;4.46;;;2.76;;
14890;SDS011;7537;48.014;11.590;2022-10-31T12:52:20;5.26;;;2.82;;
14890;SDS011;7537;48.014;11.590;2022-10-31T12:57:52;6.66;;;2.66;;
14890;SDS011;7537;48.014;11.590;2022-10-31T13:03:23;6.08;;;2.72;;
14890;SDS011;7537;48.014;11.590;2022-10-31T13:08:52;3.54;;;2.84;;
14890;SDS011;7537;48.014;11.590;2022-10-31T13:14:25;7.75;;;2.57;;
14890;SDS011;7537;48.014;11.590;2022-10-31T13:19:54;6.07;;;2.64;;
14890;SDS011;7537;48.014;11.590;2022-10-31T13:25:24;5.88;;;2.42;;
14890;SDS011;7537;48.014;11.590;2022-10-31T13:30:51;8.58;;;2.86;;
14890;SDS011;7537;48.014;11.590;2022-10-31T13:36:25;9.52;;;3.36;;
14890;SDS011;7537;48.014;11.590;2022-10-31T13:41:58;5.03;;;2.51;;
14890;SDS011;7537;48.014;11.590;2022-10-31T13:47:27;7.70;;;2.66;;
14890;SDS011;7537;48.014;11.590;2022-10-31T13:53:07;9.42;;;3.13;;
14890;SDS011;7537;48.014;11.590;2022-10-31T13:58:36;2.71;;;2.28;;
14890;SDS011;7537;48.014;11.590;2022-10-31T14:04:04;6.41;;;2.70;;
14890;SDS011;7537;48.014;11.590;2022-10-31T14:09:34;4.37;;;2.50;;
14890;SDS011;7537;48.014;11.590;2022-10-31T14:15:14;5.72;;;2.95;;
14890;SDS011;7537;48.014;11.590;2022-10-31T14:20:43;8.49;;;3.87;;
14890;SDS011;7537;48.014;11.590;2022-10-31T14:26:29;5.44;;;3.32;;
14890;SDS011;7537;48.014;11.590;2022-10-31T14:31:59;3.41;;;2.67;;
14890;SDS011;7537;48.014;11.590;2022-10-31T14:37:31;4.39;;;3.04;;
14890;SDS011;7537;48.014;11.590;2022-10-31T14:43:08;5.17;;;2.85;;
14890;SDS011;7537;48.014;11.590;2022-10-31T14:48:50;10.03;;;3.37;;
14890;SDS011;7537;48.014;11.590;2022-10-31T14:54:23;9.09;;;3.63;;
14890;SDS011;7537;48.014;11.590;2022-10-31T14:59:53;15.61;;;3.94;;
14890;SDS011;7537;48.014;11.590;2022-10-31T15:05:22;6.15;;;4.07;;
14890;SDS011;7537;48.014;11.590;2022-10-31T15:10:50;7.47;;;3.09;;
14890;SDS011;7537;48.014;11.590;2022-10-31T15:16:22;9.88;;;4.03;;
14890;SDS011;7537;48.014;11.590;2022-10-31T15:21:51;6.77;;;3.49;;
14890;SDS011;7537;48.014;11.590;2022-10-31T15:27:19;8.61;;;3.44;;
14890;SDS011;7537;48.014;11.590;2022-10-31T15:32:47;7.42;;;3.57;;
14890;SDS011;7537;48.014;11.590;2022-10-31T15:38:14;5.93;;;3.74;;
14890;SDS011;7537;48.014;11.590;2022-10-31T15:43:44;9.41;;;3.46;;
14890;SDS011;7537;48.014;11.590;2022-10-31T15:49:22;7.91;;;3.86;;
14890;SDS011;7537;48.014;11.590;2022-10-31T15:54:52;9.09;;;3.79;;
14890;SDS011;7537;48.014;11.590;2022-10-31T16:00:23;8.01;;;3.69;;
14890;SDS011;7537;48.014;11.590;2022-10-31T16:05:51;9.74;;;4.46;;
14890;SDS011;7537;48.014;11.590;2022-10-31T16:11:22;9.20;;;3.88;;
14890;SDS011;7537;48.014;11.590;2022-10-31T16:16:58;9.82;;;4.54;;
14890;SDS011;7537;48.014;11.590;2022-10-31T16:22:30;6.56;;;4.08;;
14890;SDS011;7537;48.014;11.590;2022-10-31T16:27:59;8.56;;;3.91;;
14890;SDS011;7537;48.014;11.590;2022-10-31T16:33:28;9.41;;;4.48;;
14890;SDS011;7537;48.014;11.590;2022-10-31T16:38:56;9.86;;;3.83;;
14890;SDS011;7537;48.014;11.590;2022-10-31T16:44:24;4.11;;;3.27;;
14890;SDS011;7537;48.014;11.590;2022-10-31T16:49:52;7.03;;;3.91;;
14890;SDS011;7537;48.014;11.590;2022-10-31T16:55:20;8.05;;;3.73;;
14890;SDS011;7537;48.014;11.590;2022-10-31T17:00:48;8.16;;;4.19;;
14890;SDS011;7537;48.014;11.590;2022-10-31T17:06:15;4.74;;;4.20;;
14890;SDS011;7537;48.014;11.590;2022-10-31T17:11:44;10.11;;;4.06;;
14890;SDS011;7537;48.014;11.590;2022-10-31T17:17:15;7.82;;;4.19;;
14890;SDS011;7537;48.014;11.590;2022-10-31T17:22:42;7.04;;;3.97;;
14890;SDS011;7537;48.014;11.590;2022-10-31T17:28:12;7.69;;;3.82;;
14890;SDS011;7537;48.014;11.590;2022-10-31T17:33:40;9.02;;;4.09;;
14890;SDS011;7537;48.014;11.590;2022-10-31T17:39:08;5.86;;;3.84;;
14890;SDS011;7537;48.014;11.590;2022-10-31T17:44:35;6.64;;;4.02;;
14890;SDS011;7537;48.014;11.590;2022-10-31T17:50:03;10.73;;;3.90;;
14890;SDS011;7537;48.014;11.590;2022-10-31T17:55:31;6.58;;;3.36;;
14890;SDS011;7537;48.014;11.590;2022-10-31T18:00:59;7.20;;;4.42;;
14890;SDS011;7537;48.014;11.590;2022-10-31T18:06:26;7.66;;;3.94;;
14890;SDS011;7537;48.014;11.590;2022-10-31T18:11:54;8.99;;;3.71;;
14890;SDS011;7537;48.014;11.590;2022-10-31T18:17:25;8.50;;;3.59;;
14890;SDS011;7537;48.014;11.590;2022-10-31T18:22:53;8.29;;;3.84;;
14890;SDS011;7537;48.014;11.590;2022-10-31T18:28:20;15.94;;;3.91;;
14890;SDS011;7537;48.014;11.590;2022-10-31T18:33:48;7.59;;;4.26;;
14890;SDS011;7537;48.014;11.590;2022-10-31T18:39:18;6.54;;;3.65;;
14890;SDS011;7537;48.014;11.590;2022-10-31T18:44:45;5.10;;;3.96;;
14890;SDS011;7537;48.014;11.590;2022-10-31T18:50:14;7.12;;;3.91;;
14890;SDS011;7537;48.014;11.590;2022-10-31T18:55:42;5.44;;;3.56;;
14890;SDS011;7537;48.014;11.590;2022-10-31T19:01:11;9.13;;;3.95;;
14890;SDS011;7537;48.014;11.590;2022-10-31T19:06:39;10.54;;;3.93;;
14890;SDS011;7537;48.014;11.590;2022-10-31T19:12:07;4.27;;;3.46;;
14890;SDS011;7537;48.014;11.590;2022-10-31T19:17:38;9.08;;;4.19;;
14890;SDS011;7537;48.014;11.590;2022-10-31T19:23:06;9.13;;;3.55;;
14890;SDS011;7537;48.014;11.590;2022-10-31T19:28:34;13.10;;;4.14;;
14890;SDS011;7537;48.014;11.590;2022-10-31T19:34:02;9.26;;;3.96;;
14890;SDS011;7537;48.014;11.590;2022-10-31T19:39:30;4.71;;;3.39;;
14890;SDS011;7537;48.014;11.590;2022-10-31T19:44:57;6.83;;;4.20;;
14890;SDS011;7537;48.014;11.590;2022-10-31T19:50:25;7.36;;;3.76;;
14890;SDS011;7537;48.014;11.590;2022-10-31T19:55:53;5.29;;;3.78;;
14890;SDS011;7537;48.014;11.590;2022-10-31T20:01:21;7.15;;;3.86;;
14890;SDS011;7537;48.014;11.590;2022-10-31T20:06:54;4.89;;;3.62;;
14890;SDS011;7537;48.014;11.590;2022-10-31T20:12:21;9.32;;;4.18;;
14890;SDS011;7537;48.014;11.590;2022-10-31T20:18:02;9.31;;;4.99;;
14890;SDS011;7537;48.014;11.590;2022-10-31T20:23:30;8.36;;;4.01;;
14890;SDS011;7537;48.014;11.590;2022-10-31T20:28:58;6.84;;;4.34;;
14890;SDS011;7537;48.014;11.590;2022-10-31T20:34:26;10.23;;;4.31;;
14890;SDS011;7537;48.014;11.590;2022-10-31T20:39:55;6.58;;;5.56;;
14890;SDS011;7537;48.014;11.590;2022-10-31T20:45:22;15.18;;;9.19;;
14890;SDS011;7537;48.014;11.590;2022-10-31T20:50:54;10.38;;;7.36;;
14890;SDS011;7537;48.014;11.590;2022-10-31T20:56:22;8.20;;;6.81;;
14890;SDS011;7537;48.014;11.590;2022-10-31T21:01:50;6.61;;;5.49;;
14890;SDS011;7537;48.014;11.590;2022-10-31T21:07:17;10.36;;;7.39;;
14890;SDS011;7537;48.014;11.590;2022-10-31T21:12:46;9.03;;;6.22;;
14890;SDS011;7537;48.014;11.590;2022-10-31T21:18:17;5.81;;;5.86;;
14890;SDS011;7537;48.014;11.590;2022-10-31T21:23:44;5.11;;;3.93;;
14890;SDS011;7537;48.014;11.590;2022-10-31T21:29:12;6.57;;;4.94;;
14890;SDS011;7537;48.014;11.590;2022-10-31T21:34:40;6.84;;;4.84;;
14890;SDS011;7537;48.014;11.590;2022-10-31T21:40:09;8.40;;;5.17;;
14890;SDS011;7537;48.014;11.590;2022-10-31T21:45:38;8.39;;;6.82;;
14890;SDS011;7537;48.014;11.590;2022-10-31T21:51:06;6.36;;;4.47;;
14890;SDS011;7537;48.014;11.590;2022-10-31T21:56:34;7.29;;;4.61;;
14890;SDS011;7537;48.014;11.590;2022-10-31T22:02:01;5.38;;;3.95;;
14890;SDS011;7537;48.014;11.590;2022-10-31T22:07:29;9.77;;;4.77;;
14890;SDS011;7537;48.014;11.590;2022-10-31T22:12:57;10.51;;;6.04;;
14890;SDS011;7537;48.014;11.590;2022-10-31T22:18:30;10.44;;;7.63;;
14890;SDS011;7537;48.014;11.590;2022-10-31T22:23:58;7.82;;;5.94;;
14890;SDS011;7537;48.014;11.590;2022-10-31T22:29:26;14.98;;;7.95;;
14890;SDS011;7537;48.014;11.590;2022-10-31T22:34:53;10.23;;;7.69;;
14890;SDS011;7537;48.014;11.590;2022-10-31T22:40:20;11.96;;;10.03;;
14890;SDS011;7537;48.014;11.590;2022-10-31T22:45:53;10.91;;;6.34;;
14890;SDS011;7537;48.014;11.590;2022-10-31T22:51:19;6.81;;;6.56;;
14890;SDS011;7537;48.014;11.590;2022-10-31T22:56:45;5.51;;;5.35;;
14890;SDS011;7537;48.014;11.590;2022-10-31T23:02:10;6.49;;;4.37;;
14890;SDS011;7537;48.014;11.590;2022-10-31T23:07:36;12.77;;;4.15;;
14890;SDS011;7537;48.014;11.590;2022-10-31T23:13:03;4.32;;;3.64;;
14890;SDS011;7537;48.014;11.590;2022-10-31T23:18:33;6.19;;;3.45;;
14890;SDS011;7537;48.014;11.590;2022-10-31T23:23:58;4.11;;;3.56;;
14890;SDS011;7537;48.014;11.590;2022-10-31T23:29:24;5.65;;;3.80;;
14890;SDS011;7537;48.014;11.590;2022-10-31T23:34:51;3.09;;;3.16;;
14890;SDS011;7537;48.014;11.590;2022-10-31T23:40:17;6.06;;;3.62;;
14890;SDS011;7537;48.014;11.590;2022-10-31T23:45:42;8.85;;;2.99;;
14890;SDS011;7537;48.014;11.590;2022-10-31T23:51:08;7.52;;;2.58;;
14890;SDS011;7537;48.014;11.590;2022-10-31T23:56:34;2.87;;;2.44;;
